Time;durP1;ratioP1;P1;durP2;ratioP2;P2;SDS_P1;SDS_P2;PMS_P1;PMS_P2;Temp;Humidity;BMP_temperature;BMP_pressure;BME280_temperature;BME280_humidity;BME280_pressure;Samples;Min_cycle;Max_cycle;Signal;HPM_P1;HPM_P2
2021/12/05 00:17:08;;;;;;;68.88;19.80;;;4.20;99.90;;;;;;4943553;28;20047;-87
2021/12/05 00:22:33;;;;;;;62.58;17.02;;;3.80;99.90;;;;;;4960032;28;20115;-87
2021/12/05 00:25:12;;;;;;;60.38;19.05;;;3.60;99.90;;;;;;4942560;28;20051;-87
2021/12/05 00:27:49;;;;;;;60.53;18.90;;;3.60;99.90;;;;;;4941215;28;20122;-87
2021/12/05 00:33:25;;;;;;;63.00;20.02;;;3.60;99.90;;;;;;4942569;28;20040;-87
2021/12/05 00:57:46;;;;;;;53.05;18.35;;;3.90;99.90;;;;;;4939971;28;20051;-87
2021/12/05 01:03:21;;;;;;;39.75;15.32;;;3.50;99.90;;;;;;4939574;28;20040;-87
2021/12/05 01:16:49;;;;;;;37.45;15.35;;;3.50;99.90;;;;;;4940654;28;20059;-87
2021/12/05 01:19:21;;;;;;;51.63;17.63;;;4.30;99.90;;;;;;4924844;29;20035;-87
2021/12/05 01:21:53;;;;;;;50.88;18.08;;;3.60;99.90;;;;;;4924325;29;20044;-87
2021/12/05 01:24:53;;;;;;;39.85;14.45;;;3.60;99.90;;;;;;4923712;28;20032;-87
2021/12/05 01:27:45;;;;;;;44.72;16.23;;;3.60;99.90;;;;;;4923423;28;20034;-87
2021/12/05 01:40:56;;;;;;;52.40;16.80;;;3.20;99.90;;;;;;4939447;29;20090;-88
2021/12/05 01:46:27;;;;;;;43.58;14.95;;;3.40;99.90;;;;;;4938656;29;20051;-87
2021/12/05 01:49:19;;;;;;;37.88;14.95;;;3.40;99.90;;;;;;4939004;29;20058;-87
2021/12/05 01:57:24;;;;;;;45.78;16.95;;;3.60;99.90;;;;;;4939488;29;20047;-87
2021/12/05 02:16:40;;;;;;;46.47;15.88;;;3.60;99.90;;;;;;4938872;29;20079;-87
2021/12/05 02:30:51;;;;;;;43.08;15.65;;;3.50;99.90;;;;;;4938511;29;20055;-88
2021/12/05 02:39:01;;;;;;;52.17;17.40;;;3.60;99.90;;;;;;4938413;29;20187;-88
2021/12/05 02:41:25;;;;;;;49.95;16.85;;;3.50;99.90;;;;;;4937829;28;20055;-88
2021/12/05 02:44:05;;;;;;;40.55;15.07;;;3.50;99.90;;;;;;4921978;28;20047;-88
2021/12/05 02:46:35;;;;;;;45.33;17.33;;;3.50;99.90;;;;;;4921099;29;20048;-88
2021/12/05 02:49:09;;;;;;;45.83;16.33;;;4.50;99.90;;;;;;4938039;29;20043;-88
2021/12/05 02:51:58;;;;;;;43.85;16.80;;;3.80;99.90;;;;;;4922731;28;20031;-89
2021/12/05 02:54:27;;;;;;;49.40;15.95;;;4.30;99.90;;;;;;4922292;29;20023;-88
2021/12/05 02:56:55;;;;;;;42.30;15.85;;;3.60;99.90;;;;;;4922564;29;20028;-86
2021/12/05 02:59:41;;;;;;;38.90;16.30;;;4.10;99.90;;;;;;4922253;29;20048;-86
2021/12/05 03:02:17;;;;;;;37.77;15.87;;;3.90;99.90;;;;;;4921989;29;20056;-86
2021/12/05 03:04:51;;;;;;;54.42;18.17;;;3.80;99.90;;;;;;4922314;29;20692;-87
2021/12/05 03:07:27;;;;;;;47.60;17.63;;;3.90;99.90;;;;;;4922248;29;20577;-87
2021/12/05 03:09:55;;;;;;;44.22;17.48;;;3.00;99.90;;;;;;4922500;28;20071;-87
2021/12/05 03:12:21;;;;;;;46.72;17.05;;;4.00;99.90;;;;;;4922490;29;20114;-86
2021/12/05 03:14:50;;;;;;;46.38;16.17;;;3.90;99.90;;;;;;4922464;28;20039;-86
2021/12/05 03:17:19;;;;;;;46.67;18.40;;;3.90;99.90;;;;;;4922063;29;20062;-87
2021/12/05 03:19:45;;;;;;;41.95;16.95;;;3.40;99.90;;;;;;4922907;28;20095;-87
2021/12/05 03:22:19;;;;;;;40.33;16.83;;;3.60;99.90;;;;;;4922900;28;20047;-87
2021/12/05 03:24:48;;;;;;;55.60;18.52;;;3.70;99.90;;;;;;4923148;28;20034;-87
2021/12/05 03:27:20;;;;;;;50.70;17.73;;;3.80;99.90;;;;;;4923363;29;20039;-87
2021/12/05 03:29:53;;;;;;;55.40;20.13;;;3.50;99.90;;;;;;4922946;28;20047;-87
2021/12/05 03:32:25;;;;;;;62.58;21.77;;;3.50;99.90;;;;;;4922489;28;20062;-87
2021/12/05 03:34:54;;;;;;;51.50;20.05;;;4.20;99.90;;;;;;4921445;29;20052;-87
2021/12/05 03:37:34;;;;;;;52.17;21.52;;;3.60;99.90;;;;;;4937144;29;20115;-88
2021/12/05 03:40:10;;;;;;;53.75;20.73;;;3.60;99.90;;;;;;4921813;29;20069;-88
2021/12/05 03:42:53;;;;;;;49.15;20.77;;;3.60;99.90;;;;;;4921377;29;20054;-88
2021/12/05 03:45:38;;;;;;;65.45;22.77;;;3.60;99.90;;;;;;4921032;29;20238;-88
2021/12/05 03:48:16;;;;;;;56.95;24.13;;;3.60;99.90;;;;;;4918908;29;20087;-88
2021/12/05 03:50:55;;;;;;;64.82;23.15;;;3.70;99.90;;;;;;4921117;29;20031;-87
2021/12/05 03:53:29;;;;;;;72.00;25.75;;;3.60;99.90;;;;;;4921165;29;20090;-88
2021/12/05 03:56:44;;;;;;;62.28;24.95;;;3.20;99.90;;;;;;4936136;29;20079;-88
2021/12/05 03:59:27;;;;;;;70.82;26.30;;;3.50;99.90;;;;;;4933182;29;20063;-88
2021/12/05 04:02:19;;;;;;;;;;;;;;;;;;;;;
2021/12/05 04:04:53;;;;;;;70.70;26.88;;;3.60;99.90;;;;;;4935553;29;20087;-87
2021/12/05 04:07:34;;;;;;;79.45;29.00;;;3.60;99.90;;;;;;4920521;29;20052;-88
2021/12/05 04:10:26;;;;;;;77.82;30.65;;;3.50;99.90;;;;;;4919103;29;20035;-88
2021/12/05 04:13:00;;;;;;;89.38;30.48;;;4.00;99.90;;;;;;4919168;29;20115;-87
2021/12/05 04:15:41;;;;;;;65.07;28.35;;;3.40;99.90;;;;;;4919308;29;20386;-88
2021/12/05 04:18:12;;;;;;;67.82;28.90;;;3.30;99.90;;;;;;4919755;29;20048;-87
2021/12/05 04:20:47;;;;;;;73.85;28.05;;;3.10;99.90;;;;;;4920172;29;20126;-88
2021/12/05 04:23:25;;;;;;;;;;;;;;;;;;;;;
2021/12/05 04:26:04;;;;;;;75.50;28.70;;;3.40;99.90;;;;;;4934535;29;20039;-88
2021/12/05 04:28:35;;;;;;;80.53;30.63;;;3.40;99.90;;;;;;4916261;29;20040;-89
2021/12/05 04:31:28;;;;;;;69.95;28.20;;;3.40;99.90;;;;;;4921593;29;20028;-88
2021/12/05 04:34:31;;;;;;;94.60;31.08;;;3.30;99.90;;;;;;4920550;29;20119;-88
2021/12/05 04:37:08;;;;;;;63.45;25.23;;;3.70;99.90;;;;;;4934983;29;20036;-88
2021/12/05 04:39:39;;;;;;;57.88;22.65;;;3.30;99.90;;;;;;4922754;29;20042;-88
2021/12/05 04:42:10;;;;;;;68.05;30.15;;;3.80;99.90;;;;;;4939755;28;20083;-88
2021/12/05 04:44:43;;;;;;;65.22;28.27;;;2.90;99.90;;;;;;4923551;28;20044;-88
2021/12/05 04:47:20;;;;;;;70.13;28.38;;;3.90;99.90;;;;;;4939567;29;20047;-87
2021/12/05 04:50:04;;;;;;;57.08;25.95;;;3.40;99.90;;;;;;4921409;29;20046;-87
2021/12/05 04:52:35;;;;;;;71.93;27.05;;;3.70;99.90;;;;;;4921699;29;20043;-87
2021/12/05 04:55:12;;;;;;;70.97;25.45;;;3.40;99.90;;;;;;4923669;29;20067;-88
2021/12/05 04:57:55;;;;;;;68.25;24.80;;;3.30;99.90;;;;;;4925258;28;20095;-88
2021/12/05 05:00:35;;;;;;;76.85;26.13;;;3.40;99.90;;;;;;4923585;28;20064;-88
2021/12/05 05:03:08;;;;;;;52.30;22.70;;;3.30;99.90;;;;;;4924097;29;20055;-88
2021/12/05 05:05:44;;;;;;;68.88;25.90;;;3.30;99.90;;;;;;4924267;29;20036;-87
2021/12/05 05:08:10;;;;;;;58.75;22.30;;;3.30;99.90;;;;;;4924620;28;20039;-87
2021/12/05 05:10:39;;;;;;;57.67;23.40;;;3.30;99.90;;;;;;4923786;29;20091;-87
2021/12/05 05:13:30;;;;;;;43.20;18.10;;;3.20;99.90;;;;;;4924890;29;20039;-88
2021/12/05 05:16:02;;;;;;;55.63;19.27;;;3.10;99.90;;;;;;4940007;28;20047;-88
2021/12/05 05:18:48;;;;;;;47.63;19.00;;;3.20;99.90;;;;;;4924405;28;20116;-88
2021/12/05 05:30:03;;;;;;;52.78;19.00;;;3.90;99.90;;;;;;4940030;29;20103;-87
2021/12/05 05:46:23;;;;;;;41.95;17.23;;;3.00;99.90;;;;;;4938349;29;20062;-88
2021/12/05 05:51:59;;;;;;;49.00;15.32;;;2.80;99.90;;;;;;4917501;29;20187;-88
2021/12/05 05:54:25;;;;;;;42.40;13.77;;;2.70;99.90;;;;;;4923854;29;20048;-88
2021/12/05 05:57:01;;;;;;;38.60;14.75;;;2.50;99.90;;;;;;4918499;29;20104;-87
2021/12/05 05:59:40;;;;;;;37.92;14.23;;;2.80;99.90;;;;;;4904823;28;20036;-88
2021/12/05 06:04:43;;;;;;;43.90;13.95;;;2.80;99.90;;;;;;4920289;29;20070;-88
2021/12/05 06:07:15;;;;;;;48.70;16.67;;;3.40;99.90;;;;;;4904369;29;20048;-88
2021/12/05 06:09:52;;;;;;;42.63;14.68;;;2.80;99.90;;;;;;4905072;28;20046;-87
2021/12/05 06:12:26;;;;;;;34.63;12.85;;;3.30;99.90;;;;;;4920326;28;20032;-87
2021/12/05 06:15:08;;;;;;;34.90;14.13;;;2.10;99.90;;;;;;4904385;29;20047;-87
2021/12/05 06:17:40;;;;;;;32.63;13.48;;;2.70;99.90;;;;;;4905315;28;20107;-87
2021/12/05 06:20:16;;;;;;;40.88;14.35;;;3.50;99.90;;;;;;4905188;28;20044;-87
2021/12/05 06:22:43;;;;;;;39.45;13.80;;;2.70;99.90;;;;;;4904704;28;20056;-88
2021/12/05 06:25:19;;;;;;;39.88;13.63;;;2.30;99.90;;;;;;4904207;28;20036;-87
2021/12/05 06:27:57;;;;;;;38.20;13.73;;;3.00;99.90;;;;;;4905191;28;20036;-87
2021/12/05 06:46:25;;;;;;;46.83;13.30;;;2.70;99.90;;;;;;4918696;29;20064;-87
2021/12/05 06:48:51;;;;;;;41.40;15.52;;;3.10;99.90;;;;;;4902522;29;20043;-87
2021/12/05 06:51:21;;;;;;;37.22;13.32;;;2.80;99.90;;;;;;4901444;29;20394;-87
2021/12/05 06:53:47;;;;;;;34.35;15.38;;;2.70;99.90;;;;;;4902890;28;20032;-87
2021/12/05 06:56:18;;;;;;;;;;;2.40;99.90;;;;;;4903136;28;20063;-87
2021/12/05 06:58:52;;;;;;;45.85;13.73;;;2.90;99.90;;;;;;4902293;29;19922;-87
2021/12/05 07:01:21;;;;;;;;;;;2.90;99.90;;;;;;4903564;28;20100;-87
2021/12/05 07:03:49;;;;;;;34.67;12.65;;;2.80;99.90;;;;;;4902633;28;20592;-87
2021/12/05 07:08:53;;;;;;;34.42;12.65;;;2.60;99.90;;;;;;4918449;28;20039;-87
2021/12/05 07:11:57;;;;;;;52.33;15.07;;;2.80;99.90;;;;;;4902379;29;20055;-86
2021/12/05 07:25:46;;;;;;;37.28;13.23;;;2.80;99.90;;;;;;4918777;28;20050;-87
2021/12/05 07:42:04;;;;;;;43.47;15.50;;;2.90;99.90;;;;;;4918524;29;20036;-87
2021/12/05 07:44:30;;;;;;;37.35;13.55;;;3.20;99.90;;;;;;4902285;29;20051;-86
2021/12/05 07:46:56;;;;;;;;;;;3.10;99.90;;;;;;4900777;29;20115;-87
2021/12/05 07:49:23;;;;;;;47.83;14.43;;;2.90;99.90;;;;;;4901234;28;19911;-87
2021/12/05 07:51:50;;;;;;;31.48;11.98;;;3.30;99.90;;;;;;4900726;29;20048;-87
2021/12/05 07:56:55;;;;;;;34.45;13.40;;;2.90;99.90;;;;;;4915833;29;20202;-87
2021/12/05 07:59:57;;;;;;;41.38;16.52;;;2.30;99.90;;;;;;4900542;29;20089;-87
2021/12/05 08:16:01;;;;;;;44.60;14.63;;;3.70;99.90;;;;;;4914798;29;20052;-87
2021/12/05 08:18:31;;;;;;;48.42;14.00;;;3.10;99.90;;;;;;4899518;28;20052;-87
2021/12/05 08:21:02;;;;;;;43.55;18.00;;;3.10;99.90;;;;;;4911401;29;20027;-87
2021/12/05 08:23:31;;;;;;;48.65;16.40;;;3.10;99.90;;;;;;4920284;28;20049;-88
2021/12/05 08:26:09;;;;;;;52.20;16.90;;;3.10;99.90;;;;;;4919925;28;20070;-87
2021/12/05 08:29:08;;;;;;;42.63;16.80;;;3.10;99.90;;;;;;4922910;29;20063;-86
2021/12/05 08:34:47;;;;;;;;;;;3.30;99.90;;;;;;4916508;28;20039;-87
2021/12/05 08:43:11;;;;;;;33.78;15.27;;;3.10;99.90;;;;;;4919687;29;20036;-86
2021/12/05 08:46:10;;;;;;;46.88;15.95;;;3.40;99.90;;;;;;4915296;29;20060;-87
2021/12/05 09:24:37;;;;;;;48.17;19.20;;;3.10;99.90;;;;;;4937950;29;20095;-87
2021/12/05 10:12:46;;;;;;;33.58;12.90;;;3.90;99.90;;;;;;4862836;29;20127;-86
2021/12/05 10:36:00;;;;;;;32.45;14.27;;;3.90;99.90;;;;;;4938775;28;20040;-87
2021/12/05 10:38:44;;;;;;;25.05;11.02;;;4.20;99.90;;;;;;4922021;28;20046;-86
2021/12/05 10:43:55;;;;;;;30.08;13.73;;;3.50;99.90;;;;;;4938587;28;20067;-87
2021/12/05 10:46:29;;;;;;;38.90;14.07;;;4.10;99.90;;;;;;4922628;28;20027;-87
2021/12/05 10:49:03;;;;;;;28.02;13.48;;;4.20;99.90;;;;;;4918703;28;20043;-87
2021/12/05 10:51:37;;;;;;;28.27;11.75;;;4.00;99.90;;;;;;4902770;28;20039;-87
2021/12/05 10:54:09;;;;;;;30.08;11.95;;;4.40;99.90;;;;;;4910429;28;20043;-87
2021/12/05 10:56:44;;;;;;;24.95;11.43;;;4.70;99.90;;;;;;4903702;28;20036;-87
2021/12/05 10:59:25;;;;;;;26.40;12.18;;;4.20;99.90;;;;;;4917851;28;20035;-88
2021/12/05 11:01:56;;;;;;;23.67;10.63;;;4.20;99.90;;;;;;4903546;28;20044;-87
2021/12/05 11:04:35;;;;;;;24.88;11.40;;;4.40;99.90;;;;;;4903017;29;20107;-88
2021/12/05 11:07:17;;;;;;;27.38;10.90;;;4.20;99.90;;;;;;4903414;28;20108;-88
2021/12/05 11:09:57;;;;;;;25.27;10.40;;;4.30;99.90;;;;;;4903758;28;20048;-88
2021/12/05 11:12:38;;;;;;;19.27;10.57;;;4.20;99.90;;;;;;4904013;28;20066;-88
2021/12/05 11:15:14;;;;;;;25.17;9.93;;;4.30;99.90;;;;;;4903071;28;20124;-88
2021/12/05 11:17:49;;;;;;;;;;;4.30;99.90;;;;;;4903440;28;20036;-88
2021/12/05 11:20:29;;;;;;;19.10;8.23;;;4.70;99.90;;;;;;4903755;28;19943;-88
2021/12/05 11:22:56;;;;;;;21.40;9.98;;;4.40;99.90;;;;;;4903410;28;20064;-88
2021/12/05 11:25:29;;;;;;;27.33;12.15;;;4.70;99.90;;;;;;4903419;28;20036;-88
2021/12/05 11:28:00;;;;;;;25.63;9.75;;;4.80;99.90;;;;;;4902754;28;20099;-88
2021/12/05 11:30:34;;;;;;;23.33;11.00;;;4.40;99.90;;;;;;4903259;28;20068;-88
2021/12/05 11:33:17;;;;;;;21.55;10.52;;;4.50;99.90;;;;;;4903251;28;20079;-88
2021/12/05 11:35:59;;;;;;;26.45;10.38;;;5.00;99.90;;;;;;4902996;28;20042;-88
2021/12/05 11:38:34;;;;;;;25.70;10.60;;;4.70;99.90;;;;;;4903167;28;20114;-88
2021/12/05 11:41:06;;;;;;;26.83;12.40;;;4.40;99.90;;;;;;4902701;28;20056;-88
2021/12/05 11:43:36;;;;;;;28.77;11.13;;;4.40;99.90;;;;;;4902995;28;20032;-88
2021/12/05 11:46:08;;;;;;;26.10;10.60;;;4.20;99.90;;;;;;4902534;28;20052;-88
2021/12/05 11:48:45;;;;;;;27.08;10.68;;;4.90;99.90;;;;;;4903025;28;20100;-88
2021/12/05 11:51:27;;;;;;;20.73;11.13;;;4.30;99.90;;;;;;4902838;28;20036;-88
2021/12/05 11:54:08;;;;;;;28.98;11.38;;;4.50;99.90;;;;;;4918342;28;20149;-88
2021/12/05 11:56:34;;;;;;;22.05;9.82;;;4.50;99.90;;;;;;4902708;28;20044;-88
2021/12/05 11:59:17;;;;;;;25.60;11.95;;;4.40;99.90;;;;;;4902367;28;20040;-88
2021/12/05 12:02:03;;;;;;;28.45;12.75;;;4.40;99.90;;;;;;4903460;28;20055;-88
2021/12/05 12:04:49;;;;;;;20.88;10.02;;;4.40;99.90;;;;;;4924317;28;20461;-88
2021/12/05 12:07:28;;;;;;;19.50;9.77;;;4.40;99.90;;;;;;4910056;28;20059;-88
2021/12/05 12:10:01;;;;;;;24.60;10.57;;;4.40;99.90;;;;;;4906449;28;20203;-88
2021/12/05 12:12:27;;;;;;;26.75;10.57;;;4.70;99.90;;;;;;4906595;28;20039;-88
2021/12/05 12:14:54;;;;;;;24.23;10.88;;;4.40;99.90;;;;;;4906159;28;20051;-89
2021/12/05 12:17:21;;;;;;;16.88;9.57;;;4.50;99.90;;;;;;4912127;28;20044;-88
2021/12/05 12:19:50;;;;;;;17.25;9.32;;;4.40;99.90;;;;;;4906393;28;20032;-88
2021/12/05 12:22:20;;;;;;;22.15;9.52;;;4.50;99.90;;;;;;4905842;28;20036;-88
2021/12/05 12:24:56;;;;;;;18.05;9.40;;;5.00;99.90;;;;;;4921610;28;20039;-89
2021/12/05 12:27:25;;;;;;;19.25;10.40;;;4.50;99.90;;;;;;4906073;28;20040;-88
2021/12/05 12:29:52;;;;;;;22.13;11.20;;;4.60;99.90;;;;;;4906089;28;20064;-88
2021/12/05 12:32:27;;;;;;;25.35;10.98;;;4.90;99.90;;;;;;5135155;24;20043;-88
2021/12/05 12:35:24;;;;;;;17.70;9.52;;;4.60;99.90;;;;;;4991209;23;20357;-89
2021/12/05 12:38:30;;;;;;;19.35;9.98;;;5.30;99.90;;;;;;4914736;29;20048;-88
2021/12/05 12:47:06;;;;;;;19.70;9.70;;;5.00;99.90;;;;;;5092773;23;20046;-87
2021/12/05 12:49:41;;;;;;;18.95;10.02;;;5.10;99.90;;;;;;4924335;28;20035;-87
2021/12/05 12:52:14;;;;;;;16.90;10.07;;;5.40;99.90;;;;;;4940440;28;20036;-87
2021/12/05 12:54:55;;;;;;;18.58;10.18;;;5.00;99.90;;;;;;4924561;28;20107;-87
2021/12/05 12:57:31;;;;;;;21.20;9.75;;;4.80;99.90;;;;;;4924564;28;20070;-87
2021/12/05 13:00:11;;;;;;;18.13;8.88;;;5.60;99.90;;;;;;4924540;28;20036;-87
2021/12/05 13:02:57;;;;;;;19.05;7.68;;;5.70;99.90;;;;;;4924469;28;20091;-87
2021/12/05 13:11:14;;;;;;;18.27;7.85;;;5.70;99.90;;;;;;4937360;28;20337;-86
2021/12/05 13:13:44;;;;;;;20.77;8.25;;;5.30;99.90;;;;;;4914168;29;20320;-86
2021/12/05 13:16:36;;;;;;;13.77;8.02;;;5.00;99.90;;;;;;4904887;28;20032;-87
2021/12/05 13:19:26;;;;;;;16.92;7.55;;;5.00;99.90;;;;;;4905149;28;20032;-87
2021/12/05 13:25:56;;;;;;;14.98;7.38;;;5.00;99.90;;;;;;4920551;28;20064;-87
2021/12/05 13:29:25;;;;;;;18.60;8.63;;;5.20;99.90;;;;;;4894016;28;20107;-87
2021/12/05 13:32:04;;;;;;;24.13;8.23;;;4.70;99.90;;;;;;4907808;28;20035;-86
2021/12/05 13:34:47;;;;;;;;;;;5.00;99.90;;;;;;4931451;28;20042;-87
2021/12/05 13:37:33;;;;;;;20.52;8.55;;;4.90;99.90;;;;;;4924299;28;19932;-87
2021/12/05 13:40:29;;;;;;;25.00;9.45;;;5.00;99.90;;;;;;4912349;28;20128;-87
2021/12/05 13:43:07;;;;;;;15.27;7.60;;;5.00;99.90;;;;;;5044455;24;20032;-88
2021/12/05 13:46:35;;;;;;;17.15;7.85;;;5.20;99.90;;;;;;4935562;29;20064;-87
2021/12/05 13:49:58;;;;;;;;;;;;;;;;;;;;;
2021/12/05 13:56:23;;;;;;;;;;;;;;;;;;;;;
2021/12/05 14:02:14;;;;;;;19.05;7.25;;;5.10;99.90;;;;;;5591476;23;20059;-87
2021/12/05 14:04:56;;;;;;;13.07;7.65;;;5.10;99.90;;;;;;4939010;28;20070;-87
2021/12/05 14:07:26;;;;;;;17.65;8.40;;;5.10;99.90;;;;;;4939471;28;20035;-87
2021/12/05 14:10:03;;;;;;;15.93;8.45;;;5.10;99.90;;;;;;4923827;28;20031;-86
2021/12/05 14:12:38;;;;;;;15.70;8.32;;;5.10;99.90;;;;;;4939694;28;20067;-86
2021/12/05 14:15:07;;;;;;;15.57;8.10;;;5.00;99.90;;;;;;4938735;28;20040;-87
2021/12/05 14:17:40;;;;;;;19.20;8.35;;;5.00;99.90;;;;;;4904871;28;20036;-87
2021/12/05 14:20:13;;;;;;;20.23;8.10;;;5.50;99.90;;;;;;4900621;28;20132;-86
2021/12/05 14:22:41;;;;;;;23.70;9.10;;;5.40;99.90;;;;;;4910251;28;20088;-86
2021/12/05 14:25:18;;;;;;;18.42;8.73;;;4.90;99.90;;;;;;4918171;28;20100;-86
2021/12/05 14:27:49;;;;;;;24.13;9.73;;;4.90;99.90;;;;;;4913811;28;20047;-85
2021/12/05 14:30:20;;;;;;;15.13;9.20;;;4.80;99.90;;;;;;4903864;28;20036;-86
2021/12/05 14:32:58;;;;;;;16.95;8.45;;;4.80;99.90;;;;;;4904388;28;20036;-86
2021/12/05 14:35:35;;;;;;;19.45;9.15;;;5.30;99.90;;;;;;4919136;28;20044;-86
2021/12/05 14:38:08;;;;;;;22.85;10.15;;;4.80;99.90;;;;;;4903622;28;20085;-85
2021/12/05 14:40:35;;;;;;;17.92;9.43;;;5.30;99.90;;;;;;4903140;28;20054;-86
2021/12/05 14:43:05;;;;;;;24.65;10.30;;;4.90;99.90;;;;;;4923748;28;20040;-85
2021/12/05 14:45:37;;;;;;;19.13;10.88;;;4.70;99.90;;;;;;4928120;28;20051;-85
2021/12/05 14:48:08;;;;;;;36.85;11.93;;;4.50;99.90;;;;;;4916896;29;20032;-85
2021/12/05 14:50:36;;;;;;;19.55;10.00;;;4.70;99.90;;;;;;4934015;28;20071;-85
2021/12/05 14:53:06;;;;;;;20.95;10.23;;;4.90;99.90;;;;;;4901855;28;20044;-85
2021/12/05 14:55:33;;;;;;;20.52;11.15;;;4.70;99.90;;;;;;4918143;28;20063;-85
2021/12/05 14:58:06;;;;;;;21.48;9.55;;;4.60;99.90;;;;;;4902290;28;20100;-85
2021/12/05 15:00:35;;;;;;;19.83;10.13;;;4.60;99.90;;;;;;4901166;28;20030;-85
2021/12/05 15:03:06;;;;;;;20.05;10.40;;;4.50;99.90;;;;;;4901768;28;20076;-85
2021/12/05 15:05:34;;;;;;;24.13;11.10;;;4.80;99.90;;;;;;4901179;28;20330;-85
2021/12/05 15:08:12;;;;;;;23.05;9.60;;;4.60;99.90;;;;;;4917078;28;20646;-85
2021/12/05 15:10:41;;;;;;;20.77;10.63;;;5.00;99.90;;;;;;4901800;28;20456;-85
2021/12/05 15:13:09;;;;;;;21.42;10.15;;;4.90;99.90;;;;;;4901156;28;20033;-85
2021/12/05 15:15:35;;;;;;;21.02;10.88;;;4.70;99.90;;;;;;4901616;28;20067;-85
2021/12/05 15:18:01;;;;;;;30.45;11.88;;;4.30;99.90;;;;;;4901671;28;20079;-85
2021/12/05 15:20:30;;;;;;;19.45;10.43;;;4.80;99.90;;;;;;4901559;28;20032;-85
2021/12/05 15:23:03;;;;;;;23.10;10.65;;;5.10;99.90;;;;;;4901454;28;20028;-85
2021/12/05 15:25:30;;;;;;;20.63;10.85;;;5.00;99.90;;;;;;4900875;28;20059;-85
2021/12/05 15:27:57;;;;;;;22.50;12.27;;;4.80;99.90;;;;;;4900953;28;20028;-85
2021/12/05 15:30:27;;;;;;;27.88;12.27;;;4.60;99.90;;;;;;4900463;28;20063;-85
2021/12/05 15:32:56;;;;;;;24.95;12.90;;;4.50;99.90;;;;;;4899416;28;20043;-85
2021/12/05 15:35:23;;;;;;;22.40;11.30;;;4.40;99.90;;;;;;4902014;29;20031;-86
2021/12/05 15:38:02;;;;;;;28.58;12.68;;;4.50;99.90;;;;;;4911920;29;20358;-85
2021/12/05 15:40:30;;;;;;;27.60;11.30;;;4.40;99.90;;;;;;4929827;29;20036;-85
2021/12/05 15:43:03;;;;;;;26.25;12.32;;;5.00;99.90;;;;;;4919206;29;20133;-86
2021/12/05 15:45:29;;;;;;;25.52;12.45;;;4.50;99.90;;;;;;4909094;29;20043;-85
2021/12/05 15:47:55;;;;;;;32.05;12.88;;;5.10;99.90;;;;;;4922038;28;20051;-85
2021/12/05 15:50:25;;;;;;;30.52;12.82;;;4.60;99.90;;;;;;4915790;29;20468;-85
2021/12/05 15:52:54;;;;;;;23.55;12.77;;;4.40;99.90;;;;;;4914350;29;20107;-85
2021/12/05 15:55:25;;;;;;;26.80;13.90;;;4.40;99.90;;;;;;4915226;29;20354;-85
2021/12/05 15:58:01;;;;;;;31.38;14.18;;;4.40;99.90;;;;;;4916721;29;20043;-85
2021/12/05 16:00:32;;;;;;;28.88;14.80;;;4.40;99.90;;;;;;4916028;28;20078;-85
2021/12/05 16:03:00;;;;;;;34.17;14.27;;;4.30;99.90;;;;;;4916359;29;20214;-85
2021/12/05 16:05:26;;;;;;;35.83;15.05;;;4.20;99.90;;;;;;4929574;29;20152;-85
2021/12/05 16:07:59;;;;;;;;;;;4.20;99.90;;;;;;4931881;29;20027;-84
2021/12/05 16:10:25;;;;;;;28.80;13.88;;;4.80;99.90;;;;;;4915781;29;19914;-85
2021/12/05 16:12:53;;;;;;;31.67;14.65;;;4.20;99.90;;;;;;4930675;29;20032;-85
2021/12/05 16:15:25;;;;;;;35.65;15.50;;;3.90;99.90;;;;;;4912177;29;20047;-84
2021/12/05 16:17:58;;;;;;;35.13;15.52;;;4.20;99.90;;;;;;4920924;29;20040;-84
2021/12/05 16:20:40;;;;;;;35.33;14.43;;;4.20;99.90;;;;;;4903389;29;20428;-85
2021/12/05 16:23:23;;;;;;;36.28;15.05;;;4.20;99.90;;;;;;4909979;29;20058;-85
2021/12/05 16:25:58;;;;;;;44.53;16.50;;;4.20;99.90;;;;;;4906200;29;20052;-85
2021/12/05 16:28:39;;;;;;;38.25;16.17;;;4.50;99.90;;;;;;4895483;29;20059;-84
2021/12/05 16:31:08;;;;;;;37.90;15.23;;;4.40;99.90;;;;;;4896028;29;20060;-85
2021/12/05 16:33:34;;;;;;;40.38;17.55;;;4.30;99.90;;;;;;4919894;29;20044;-85
2021/12/05 16:36:01;;;;;;;38.83;18.77;;;4.30;99.90;;;;;;4895418;29;20051;-85
2021/12/05 16:38:31;;;;;;;43.88;18.83;;;4.30;99.90;;;;;;4894845;29;20080;-85
2021/12/05 16:41:05;;;;;;;51.97;21.10;;;4.50;99.90;;;;;;4895034;29;20051;-84
2021/12/05 16:43:44;;;;;;;52.08;20.90;;;4.20;99.90;;;;;;4893607;29;20048;-85
2021/12/05 16:46:14;;;;;;;53.42;19.90;;;4.50;99.90;;;;;;4894351;29;20043;-85
2021/12/05 16:48:42;;;;;;;52.45;21.27;;;4.60;99.90;;;;;;4904930;29;20060;-85
2021/12/05 16:51:37;;;;;;;46.53;20.13;;;4.00;99.90;;;;;;4896354;29;20047;-85
2021/12/05 16:54:17;;;;;;;54.13;22.02;;;4.10;99.90;;;;;;4900593;29;20048;-85
2021/12/05 16:56:56;;;;;;;51.70;23.58;;;4.80;99.90;;;;;;4901699;29;20116;-85
2021/12/05 16:59:37;;;;;;;57.38;22.85;;;4.10;99.90;;;;;;4901255;29;20107;-85
2021/12/05 17:02:34;;;;;;;49.35;22.83;;;4.10;99.90;;;;;;4920263;29;20063;-85
2021/12/05 17:05:22;;;;;;;55.05;23.08;;;4.40;99.90;;;;;;4886763;29;20382;-85
2021/12/05 17:08:06;;;;;;;55.60;23.98;;;4.10;99.90;;;;;;4913109;29;20044;-85
2021/12/05 17:10:37;;;;;;;57.55;25.65;;;3.70;99.90;;;;;;4915556;29;20059;-85
2021/12/05 17:13:21;;;;;;;56.63;24.48;;;3.90;99.90;;;;;;4916289;29;20049;-84
2021/12/05 17:16:27;;;;;;;51.90;23.10;;;4.10;99.90;;;;;;4917530;29;20040;-85
2021/12/05 17:19:09;;;;;;;55.78;24.98;;;4.10;99.90;;;;;;4919844;29;20617;-85
2021/12/05 17:21:41;;;;;;;63.40;25.63;;;3.90;99.90;;;;;;4942933;28;20039;-85
2021/12/05 17:24:12;;;;;;;58.50;24.88;;;3.90;99.90;;;;;;4948692;29;20059;-84
2021/12/05 17:26:42;;;;;;;49.38;23.98;;;3.90;99.90;;;;;;4900605;29;20062;-84
2021/12/05 20:28:22;;;;;;;41.67;21.42;;;2.30;99.90;;;;;;4938151;29;20040;-87
2021/12/05 20:30:49;;;;;;;51.70;21.92;;;2.50;99.90;;;;;;4913758;29;20078;-87
2021/12/05 20:33:15;;;;;;;43.35;20.33;;;2.20;99.90;;;;;;4942376;29;20108;-88
2021/12/05 20:35:42;;;;;;;46.75;21.50;;;2.50;99.90;;;;;;4942096;29;20038;-87
2021/12/05 20:38:09;;;;;;;41.83;21.33;;;2.10;99.90;;;;;;4941926;29;20083;-87
2021/12/05 20:40:49;;;;;;;40.22;20.20;;;2.10;99.90;;;;;;4941778;29;20030;-87
2021/12/05 20:43:18;;;;;;;34.92;18.55;;;2.10;99.90;;;;;;4941643;29;20028;-87
2021/12/05 20:45:48;;;;;;;40.38;20.58;;;2.50;99.90;;;;;;4941746;29;20039;-87
2021/12/05 20:48:17;;;;;;;40.03;19.67;;;2.10;99.90;;;;;;4926098;29;20046;-88
2021/12/05 20:50:43;;;;;;;33.20;17.23;;;1.80;99.90;;;;;;4941822;29;20051;-87
2021/12/05 20:53:11;;;;;;;35.20;18.27;;;1.80;99.90;;;;;;4958416;29;20047;-87
2021/12/05 20:55:37;;;;;;;31.83;17.63;;;1.90;99.90;;;;;;4926003;29;20035;-87
2021/12/05 20:58:03;;;;;;;38.13;19.70;;;1.90;99.90;;;;;;4958640;29;20019;-87
2021/12/05 21:00:37;;;;;;;34.15;17.38;;;1.90;99.90;;;;;;4926208;29;20040;-89
2021/12/05 21:03:04;;;;;;;30.50;17.42;;;1.80;99.90;;;;;;4926246;29;20031;-88
2021/12/05 21:05:33;;;;;;;33.22;18.58;;;1.90;99.90;;;;;;4941239;29;20051;-88
2021/12/05 21:08:00;;;;;;;34.45;17.67;;;2.80;99.90;;;;;;4941682;29;20046;-88
2021/12/05 21:10:34;;;;;;;35.50;19.10;;;1.80;99.90;;;;;;4941449;29;20038;-87
2021/12/05 21:13:01;;;;;;;38.00;18.30;;;1.80;99.90;;;;;;4941608;29;20024;-87
2021/12/05 21:15:26;;;;;;;;;;;1.80;99.90;;;;;;4942186;29;20042;-87
2021/12/05 21:17:53;;;;;;;36.80;17.20;;;1.80;99.90;;;;;;4925680;29;19910;-88
2021/12/05 21:20:18;;;;;;;33.28;18.38;;;1.80;99.90;;;;;;4958153;29;20027;-87
2021/12/05 21:22:45;;;;;;;37.13;18.50;;;2.20;99.90;;;;;;4941359;29;20055;-87
2021/12/05 21:25:13;;;;;;;33.90;17.13;;;1.90;99.90;;;;;;4912702;29;20036;-87
2021/12/05 21:27:39;;;;;;;35.42;18.45;;;1.80;99.90;;;;;;4922145;29;20092;-87
2021/12/05 21:30:07;;;;;;;;;;;1.80;99.90;;;;;;4906729;29;20034;-88
2021/12/05 21:32:35;;;;;;;35.65;16.65;;;1.80;99.90;;;;;;4939193;29;19975;-88
2021/12/05 21:35:03;;;;;;;31.33;15.80;;;1.80;99.90;;;;;;4923410;29;20028;-87
2021/12/05 21:37:29;;;;;;;31.27;17.77;;;1.50;99.90;;;;;;4924085;29;20075;-88
2021/12/05 21:39:55;;;;;;;29.05;15.48;;;2.40;99.90;;;;;;4940324;29;20070;-87
2021/12/05 21:42:21;;;;;;;34.05;18.02;;;1.70;99.90;;;;;;4940433;29;20024;-88
2021/12/05 21:44:49;;;;;;;30.70;16.50;;;2.10;99.90;;;;;;4923994;29;20024;-88
2021/12/05 21:47:15;;;;;;;31.88;16.13;;;1.70;99.90;;;;;;4908301;29;20119;-88
2021/12/05 21:49:42;;;;;;;39.08;21.05;;;2.10;99.90;;;;;;4940330;29;20035;-88
2021/12/05 21:52:14;;;;;;;31.75;17.73;;;1.80;99.90;;;;;;4923967;29;20028;-88
2021/12/05 21:54:43;;;;;;;38.13;18.10;;;1.80;99.90;;;;;;4923914;29;20060;-89
2021/12/05 21:57:09;;;;;;;34.30;18.42;;;1.70;99.90;;;;;;4907399;29;20340;-88
2021/12/05 21:59:37;;;;;;;38.45;20.05;;;1.70;99.90;;;;;;4907391;29;20032;-88